createdAt,value
2018-07-10T00:00:35.793Z,21.20
2018-07-10T00:06:17.832Z,21.10
2018-07-10T00:11:57.584Z,21.00
2018-07-10T00:15:22.461Z,20.90
2018-07-10T00:18:47.165Z,20.80
2018-07-10T00:25:36.322Z,20.50
2018-07-10T00:29:00.985Z,20.40
2018-07-10T00:35:50.041Z,20.30
2018-07-10T00:39:14.797Z,20.30
2018-07-10T00:42:39.567Z,20.30
2018-07-10T00:46:04.339Z,20.30
2018-07-10T00:49:29.153Z,20.20
2018-07-10T00:52:53.869Z,20.10
2018-07-10T00:56:18.593Z,20.10
2018-07-10T00:59:43.286Z,20.10
2018-07-10T01:03:08.151Z,20.00
2018-07-10T01:06:33.004Z,20.00
2018-07-10T01:09:57.753Z,20.00
2018-07-10T01:13:22.510Z,20.00
2018-07-10T01:16:47.262Z,20.00
2018-07-10T01:20:12.156Z,20.00
2018-07-10T01:23:38.786Z,20.00
2018-07-10T01:27:03.583Z,20.00
2018-07-10T01:30:28.349Z,19.90
2018-07-10T01:33:53.081Z,19.80
2018-07-10T01:37:17.836Z,19.80
2018-07-10T01:40:43.854Z,19.70
2018-07-10T01:44:08.527Z,19.80
2018-07-10T01:47:33.210Z,19.70
2018-07-10T01:50:57.954Z,19.80
2018-07-10T01:57:47.073Z,19.80
2018-07-10T02:01:11.860Z,19.80
2018-07-10T02:04:38.106Z,19.80
2018-07-10T02:08:03.288Z,19.80
2018-07-10T02:11:28.138Z,19.70
2018-07-10T02:14:52.828Z,19.70
2018-07-10T02:18:17.590Z,19.70
2018-07-10T02:25:06.673Z,19.60
2018-07-10T02:28:31.412Z,19.60
2018-07-10T02:31:56.241Z,19.60
2018-07-10T02:35:20.962Z,19.60
2018-07-10T02:38:48.777Z,19.60
2018-07-10T02:45:37.874Z,19.60
2018-07-10T02:52:39.995Z,19.70
2018-07-10T02:56:05.515Z,19.70
2018-07-10T02:59:36.522Z,19.70
2018-07-10T03:03:02.534Z,19.70
2018-07-10T03:06:27.218Z,19.70
2018-07-10T03:09:51.971Z,19.60
2018-07-10T03:13:17.318Z,19.60
2018-07-10T03:16:42.076Z,19.50
2018-07-10T03:20:07.711Z,19.60
2018-07-10T03:23:32.418Z,19.50
2018-07-10T03:26:57.093Z,19.50
2018-07-10T03:30:22.066Z,19.50
2018-07-10T03:33:46.897Z,19.50
2018-07-10T03:37:12.668Z,19.50
2018-07-10T03:40:37.424Z,19.60
2018-07-10T03:44:02.166Z,19.60
2018-07-10T03:47:28.122Z,19.60
2018-07-10T03:50:53.400Z,19.60
2018-07-10T03:54:19.084Z,19.60
2018-07-10T03:57:43.952Z,19.60
2018-07-10T04:01:08.780Z,19.60
2018-07-10T04:04:33.534Z,19.50
2018-07-10T04:07:58.908Z,19.60
2018-07-10T04:11:24.717Z,19.50
2018-07-10T04:14:49.471Z,19.60
2018-07-10T04:18:16.132Z,19.60
2018-07-10T04:21:40.892Z,19.40
2018-07-10T04:25:05.705Z,19.40
2018-07-10T04:28:35.763Z,19.50
2018-07-10T04:32:01.790Z,19.30
2018-07-10T04:38:57.206Z,19.20
2018-07-10T04:42:29.566Z,19.10
2018-07-10T04:53:03.254Z,19.10
2018-07-10T04:56:28.953Z,19.10
2018-07-10T04:59:53.691Z,19.10
2018-07-10T05:03:20.668Z,19.20
2018-07-10T05:06:45.431Z,19.30
2018-07-10T05:10:10.485Z,19.30
2018-07-10T05:17:01.431Z,19.30
2018-07-10T05:20:27.378Z,19.30
2018-07-10T05:23:52.214Z,19.20
2018-07-10T05:27:17.247Z,19.00
2018-07-10T05:30:43.960Z,19.10
2018-07-10T05:34:08.824Z,19.10
2018-07-10T05:37:37.267Z,19.20
2018-07-10T05:41:01.999Z,19.30
2018-07-10T05:47:57.570Z,19.20
2018-07-10T05:51:23.554Z,19.30
2018-07-10T05:54:48.469Z,19.50
2018-07-10T06:01:38.964Z,19.70
2018-07-10T06:05:03.741Z,19.80
2018-07-10T06:08:28.581Z,20.00
2018-07-10T06:11:53.278Z,19.90
2018-07-10T06:15:18.533Z,19.90
2018-07-10T06:18:44.212Z,20.00
2018-07-10T06:22:09.121Z,20.10
2018-07-10T06:25:35.814Z,20.30
2018-07-10T06:29:05.119Z,20.30
2018-07-10T06:32:36.846Z,20.50
2018-07-10T06:36:18.898Z,20.10
2018-07-10T06:39:43.603Z,20.30
2018-07-10T06:44:12.512Z,20.40
2018-07-10T06:47:48.757Z,20.60
2018-07-10T06:51:19.858Z,20.80
2018-07-10T06:54:57.511Z,21.00
2018-07-10T07:01:49.621Z,21.10
2018-07-10T07:05:14.985Z,21.10
2018-07-10T07:08:39.848Z,21.40
2018-07-10T07:12:05.309Z,21.60
2018-07-10T07:15:30.104Z,21.60
2018-07-10T07:19:01.172Z,21.60
2018-07-10T07:22:26.295Z,21.50
2018-07-10T07:26:01.799Z,21.50
2018-07-10T07:29:27.634Z,21.60
2018-07-10T07:36:05.787Z,22.00
2018-07-10T07:39:31.703Z,21.90
2018-07-10T07:43:05.348Z,21.80
2018-07-10T07:46:31.322Z,21.90
2018-07-10T07:49:56.317Z,21.60
2018-07-10T07:53:21.444Z,21.90
2018-07-10T07:56:47.645Z,22.20
2018-07-10T08:00:12.383Z,22.10
2018-07-10T08:03:38.611Z,22.00
2018-07-10T08:07:03.411Z,22.30
2018-07-10T08:10:28.273Z,22.40
2018-07-10T08:13:53.233Z,22.50
2018-07-10T08:17:18.207Z,22.50
2018-07-10T08:20:43.133Z,22.30
2018-07-10T08:24:09.147Z,22.50
2018-07-10T08:27:37.327Z,22.50
2018-07-10T08:31:03.939Z,22.40
2018-07-10T08:34:30.325Z,22.60
2018-07-10T08:37:55.361Z,22.60
2018-07-10T08:41:22.519Z,22.50
2018-07-10T08:44:47.266Z,22.10
2018-07-10T08:48:13.060Z,22.30
2018-07-10T08:51:38.016Z,22.60
2018-07-10T08:55:03.375Z,22.70
2018-07-10T08:58:28.226Z,22.90
2018-07-10T09:01:53.358Z,23.20
2018-07-10T09:05:18.199Z,23.20
2018-07-10T09:08:42.959Z,23.30
2018-07-10T09:15:33.307Z,23.60
2018-07-10T09:22:22.382Z,23.30
2018-07-10T09:25:47.230Z,23.60
2018-07-10T09:32:41.669Z,23.30
2018-07-10T09:39:31.277Z,22.90
2018-07-10T09:43:01.413Z,23.00
2018-07-10T09:46:29.861Z,23.20
2018-07-10T09:49:54.719Z,23.40
2018-07-10T09:53:19.478Z,23.60
2018-07-10T09:56:44.471Z,23.80
2018-07-10T10:00:09.314Z,24.00
2018-07-10T10:07:00.342Z,24.70
2018-07-10T10:10:25.310Z,24.50
2018-07-10T10:13:50.308Z,24.40
2018-07-10T10:17:16.184Z,24.20
2018-07-10T10:20:42.078Z,23.70
2018-07-10T10:27:32.601Z,23.90
2018-07-10T10:30:57.363Z,24.00
2018-07-10T10:34:22.026Z,23.80
2018-07-10T10:37:47.247Z,23.40
2018-07-10T10:41:13.511Z,23.40
2018-07-10T10:44:38.198Z,23.70
2018-07-10T10:51:27.513Z,23.20
2018-07-10T10:54:52.276Z,23.50
2018-07-10T10:58:17.067Z,23.50
2018-07-10T11:05:06.265Z,23.50
2018-07-10T11:08:31.135Z,23.70
2018-07-10T11:11:57.244Z,24.10
2018-07-10T11:15:22.318Z,24.00
2018-07-10T11:19:00.905Z,24.20
2018-07-10T11:22:25.988Z,24.40
2018-07-10T11:25:50.970Z,24.40
2018-07-10T11:29:16.009Z,24.20
2018-07-10T11:32:40.755Z,24.40
2018-07-10T11:36:05.465Z,24.60
2018-07-10T11:39:30.636Z,24.50
2018-07-10T11:42:55.288Z,24.60
2018-07-10T11:46:20.042Z,24.80
2018-07-10T11:53:10.091Z,24.70
2018-07-10T11:56:34.861Z,24.50
2018-07-10T11:59:59.681Z,24.40
2018-07-10T12:03:25.878Z,24.30
2018-07-10T12:06:52.345Z,24.30
2018-07-10T12:10:26.188Z,24.40
2018-07-10T12:20:41.461Z,24.40
2018-07-10T12:24:06.772Z,24.00
2018-07-10T12:27:31.771Z,24.00
2018-07-10T12:30:56.461Z,24.00
2018-07-10T12:34:21.151Z,23.80
2018-07-10T12:37:45.893Z,24.00
2018-07-10T12:41:11.677Z,23.80
2018-07-10T12:44:36.390Z,23.70
2018-07-10T12:48:01.163Z,23.80
2018-07-10T12:51:25.905Z,24.20
2018-07-10T12:54:50.919Z,24.80
2018-07-10T12:58:16.792Z,25.10
2018-07-10T13:01:41.497Z,24.70
2018-07-10T13:05:07.514Z,24.90
2018-07-10T13:08:33.287Z,24.90
2018-07-10T13:15:22.503Z,24.90
2018-07-10T13:18:47.254Z,24.60
2018-07-10T13:22:11.994Z,25.00
2018-07-10T13:25:36.709Z,25.10
2018-07-10T13:29:01.458Z,25.10
2018-07-10T13:32:26.264Z,25.30
2018-07-10T13:35:51.131Z,25.00
2018-07-10T13:39:15.761Z,25.20
2018-07-10T13:46:13.672Z,25.80
2018-07-10T13:56:28.795Z,26.70
2018-07-10T13:59:53.443Z,27.10
2018-07-10T14:03:18.164Z,27.10
2018-07-10T14:10:07.277Z,25.80
2018-07-10T14:16:56.371Z,26.40
2018-07-10T14:20:21.060Z,26.10
2018-07-10T14:23:45.792Z,26.50
2018-07-10T14:27:10.519Z,26.50
2018-07-10T14:30:36.244Z,26.90
2018-07-10T14:34:00.951Z,27.00
2018-07-10T14:40:51.268Z,26.70
2018-07-10T14:44:16.160Z,26.60
2018-07-10T14:47:40.837Z,26.30
2018-07-10T14:51:05.543Z,26.00
2018-07-10T14:54:30.256Z,25.50
2018-07-10T14:57:55.762Z,25.70
2018-07-10T15:01:20.474Z,25.80
2018-07-10T15:04:45.186Z,25.60
2018-07-10T15:09:38.928Z,25.30
2018-07-10T15:13:03.630Z,25.10
2018-07-10T15:16:33.112Z,25.20
2018-07-10T15:19:57.882Z,24.80
2018-07-10T15:23:22.679Z,24.70
2018-07-10T15:26:47.321Z,24.70
2018-07-10T15:30:12.114Z,24.60
2018-07-10T15:33:36.835Z,24.50
2018-07-10T15:37:02.188Z,24.40
2018-07-10T15:40:26.918Z,24.10
2018-07-10T15:43:51.607Z,23.80
2018-07-10T15:47:16.317Z,23.60
2018-07-10T15:50:41.090Z,23.60
2018-07-10T16:00:54.548Z,24.00
2018-07-10T16:04:19.322Z,23.90
2018-07-10T16:07:44.076Z,23.90
2018-07-10T16:21:22.104Z,23.40
2018-07-10T16:24:51.115Z,23.50
2018-07-10T16:28:18.297Z,23.80
2018-07-10T16:31:45.449Z,23.90
2018-07-10T16:35:10.750Z,23.70
2018-07-10T16:38:37.282Z,23.60
2018-07-10T16:42:07.261Z,23.50
2018-07-10T16:45:37.594Z,23.80
2018-07-10T16:49:43.861Z,23.90
2018-07-10T16:53:08.620Z,23.70
2018-07-10T16:56:33.363Z,24.20
2018-07-10T16:59:58.544Z,24.60
2018-07-10T17:03:23.249Z,24.80
2018-07-10T17:06:47.971Z,24.70
2018-07-10T17:10:12.930Z,24.90
2018-07-10T17:13:38.694Z,24.50
2018-07-10T17:17:03.425Z,23.90
2018-07-10T17:20:28.309Z,23.50
2018-07-10T17:27:23.319Z,23.30
2018-07-10T17:30:48.021Z,23.70
2018-07-10T17:34:12.874Z,24.00
2018-07-10T17:37:48.273Z,24.20
2018-07-10T17:41:13.168Z,24.30
2018-07-10T17:48:03.871Z,24.60
2018-07-10T17:54:56.608Z,24.20
2018-07-10T17:58:23.115Z,24.20
2018-07-10T18:01:48.050Z,24.80
2018-07-10T18:05:13.067Z,24.50
2018-07-10T18:08:39.045Z,24.20
2018-07-10T18:12:04.193Z,23.70
2018-07-10T18:15:29.221Z,23.30
2018-07-10T18:18:54.234Z,23.00
2018-07-10T18:22:19.496Z,22.90
2018-07-10T18:25:44.512Z,22.70
2018-07-10T18:29:09.434Z,22.70
2018-07-10T18:35:59.726Z,22.50
2018-07-10T18:39:24.659Z,22.50
2018-07-10T18:42:49.783Z,22.50
2018-07-10T18:46:14.834Z,22.40
2018-07-10T18:49:39.908Z,22.20
2018-07-10T18:53:04.819Z,22.20
2018-07-10T18:56:30.785Z,22.10
2018-07-10T19:00:06.480Z,22.20
2018-07-10T19:03:34.656Z,21.90
2018-07-10T19:10:24.408Z,21.80
2018-07-10T19:13:49.357Z,21.70
2018-07-10T19:20:53.887Z,21.70
2018-07-10T19:24:19.709Z,21.60
2018-07-10T19:31:19.433Z,21.40
2018-07-10T19:34:44.653Z,21.30
2018-07-10T19:38:10.266Z,21.30
2018-07-10T19:41:34.971Z,21.20
2018-07-10T19:45:02.199Z,21.30
2018-07-10T19:48:26.971Z,21.30
2018-07-10T19:51:52.089Z,21.30
2018-07-10T19:55:18.598Z,21.20
2018-07-10T20:02:10.787Z,20.90
2018-07-10T20:05:36.910Z,20.80
2018-07-10T20:09:08.822Z,20.60
2018-07-10T20:16:09.637Z,20.40
2018-07-10T20:19:44.476Z,20.40
2018-07-10T20:23:30.180Z,20.30
2018-07-10T20:27:10.522Z,20.30
2018-07-10T20:30:53.271Z,20.10
2018-07-10T20:34:55.390Z,20.00
2018-07-10T20:38:21.109Z,20.00
2018-07-10T20:45:13.186Z,20.00
2018-07-10T20:48:55.898Z,20.00
2018-07-10T20:53:01.377Z,20.00
2018-07-10T20:58:49.649Z,19.90
2018-07-10T21:04:27.766Z,20.00
2018-07-10T21:11:28.336Z,19.80
2018-07-10T21:15:05.603Z,19.80
2018-07-10T21:19:47.457Z,19.90
2018-07-10T21:23:26.797Z,19.90
2018-07-10T21:27:01.251Z,19.80
2018-07-10T21:30:49.778Z,19.80
2018-07-10T21:34:25.160Z,19.70
2018-07-10T21:38:02.965Z,19.50
2018-07-10T21:42:51.096Z,19.60
2018-07-10T21:46:33.821Z,19.50
2018-07-10T21:50:02.310Z,19.40
2018-07-10T21:53:27.543Z,19.30
2018-07-10T21:56:53.220Z,19.30
2018-07-10T22:00:18.581Z,19.20
2018-07-10T22:03:43.850Z,19.20
2018-07-10T22:07:13.412Z,19.00
2018-07-10T22:10:38.650Z,19.00
2018-07-10T22:14:03.976Z,19.00
2018-07-10T22:17:29.355Z,19.00
2018-07-10T22:20:54.712Z,19.00
2018-07-10T22:27:45.782Z,18.90
2018-07-10T22:31:17.096Z,18.80
2018-07-10T22:34:45.275Z,18.80
2018-07-10T22:41:35.417Z,18.80
2018-07-10T22:45:01.020Z,18.70
2018-07-10T22:48:26.411Z,18.70
2018-07-10T22:51:51.668Z,18.60
2018-07-10T22:55:20.956Z,18.60
2018-07-10T22:58:46.297Z,18.50
2018-07-10T23:02:17.089Z,18.50
2018-07-10T23:05:44.219Z,18.50
2018-07-10T23:12:33.262Z,18.40
2018-07-10T23:15:58.015Z,18.40
2018-07-10T23:19:22.779Z,18.40
2018-07-10T23:22:55.916Z,18.30
2018-07-10T23:26:20.730Z,18.20
2018-07-10T23:29:45.463Z,18.00
2018-07-10T23:33:15.940Z,17.90
2018-07-10T23:43:38.800Z,17.80
2018-07-10T23:47:13.283Z,17.80
2018-07-10T23:54:03.043Z,17.70
2018-07-10T23:57:27.724Z,17.70
